Time;durP1;ratioP1;P1;durP2;ratioP2;P2;SDS_P1;SDS_P2;PMS_P1;PMS_P2;Temp;Humidity;BMP_temperature;BMP_pressure;BME280_temperature;BME280_humidity;BME280_pressure;Samples;Min_cycle;Max_cycle;Signal;HPM_P1;HPM_P2
2021/09/01 00:00:21;;;;;;;18.50;14.33;;;;;;;13.17;100.00;96660.28;1039946;28;20021;-66
2021/09/01 00:00:51;;;;;;;19.70;14.70;;;;;;;13.14;100.00;96660.81;1044100;28;20029;-66
2021/09/01 00:01:22;;;;;;;19.33;13.07;;;;;;;13.15;100.00;96665.09;1044536;28;20036;-66
2021/09/01 00:01:52;;;;;;;19.93;14.40;;;;;;;13.14;100.00;96666.16;1040063;28;20025;-66
2021/09/01 00:02:22;;;;;;;18.97;13.23;;;;;;;13.15;100.00;96667.78;1040064;28;20021;-66
2021/09/01 00:02:54;;;;;;;19.80;14.40;;;;;;;13.15;100.00;96668.56;1035925;28;20026;-66
2021/09/01 00:03:25;;;;;;;17.08;12.93;;;;;;;13.16;100.00;96666.72;1036550;28;20499;-66
2021/09/01 00:03:55;;;;;;;21.63;13.53;;;;;;;13.18;100.00;96660.00;1044159;28;20021;-66
2021/09/01 00:04:26;;;;;;;18.47;14.00;;;;;;;13.16;100.00;96664.84;1040421;28;20022;-66
2021/09/01 00:04:56;;;;;;;19.57;14.60;;;;;;;13.17;100.00;96666.44;1044025;28;20033;-66
2021/09/01 00:05:27;;;;;;;15.87;12.40;;;;;;;13.15;100.00;96662.41;1039941;28;20026;-67
2021/09/01 00:05:57;;;;;;;17.30;12.60;;;;;;;13.09;100.00;96658.13;1040059;28;20025;-67
2021/09/01 00:06:28;;;;;;;16.63;12.37;;;;;;;13.09;100.00;96664.28;1044002;28;20020;-67
2021/09/01 00:06:58;;;;;;;16.60;12.40;;;;;;;13.09;100.00;96664.28;1043963;28;20092;-67
2021/09/01 00:07:28;;;;;;;17.10;12.77;;;;;;;13.09;100.00;96674.22;1040045;28;20036;-66
2021/09/01 00:07:59;;;;;;;18.43;13.50;;;;;;;13.10;100.00;96668.56;1040033;28;20033;-66
2021/09/01 00:08:29;;;;;;;18.97;13.47;;;;;;;13.11;100.00;96667.53;1040101;28;20017;-67
2021/09/01 00:09:00;;;;;;;17.63;13.20;;;;;;;13.12;100.00;96668.31;1040056;28;20048;-67
2021/09/01 00:09:30;;;;;;;16.87;13.30;;;;;;;13.13;100.00;96657.31;1044568;28;20401;-67
2021/09/01 00:10:01;;;;;;;16.43;13.10;;;;;;;13.15;100.00;96665.09;1044451;28;20477;-67
2021/09/01 00:10:31;;;;;;;18.02;13.43;;;;;;;13.15;100.00;96667.78;1044510;28;20032;-66
2021/09/01 00:11:02;;;;;;;16.47;13.17;;;;;;;13.16;100.00;96666.72;1044108;28;20482;-66
2021/09/01 00:11:32;;;;;;;22.67;15.33;;;;;;;13.03;100.00;96670.75;1044186;28;20032;-67
2021/09/01 00:12:04;;;;;;;22.20;15.07;;;;;;;13.04;100.00;96672.34;1043743;28;20083;-67
2021/09/01 00:12:35;;;;;;;23.98;14.60;;;;;;;13.04;100.00;96675.03;1044143;28;20147;-67
2021/09/01 00:13:05;;;;;;;22.90;15.63;;;;;;;13.03;100.00;96676.09;1044466;28;20433;-67
2021/09/01 00:13:36;;;;;;;26.50;17.63;;;;;;;13.01;100.00;96670.22;1048274;28;20047;-67
2021/09/01 00:14:06;;;;;;;19.20;15.00;;;;;;;13.01;100.00;96676.38;1048276;28;20078;-67
2021/09/01 00:14:37;;;;;;;21.93;14.77;;;;;;;13.04;100.00;96674.22;1044205;28;20118;-67
2021/09/01 00:15:07;;;;;;;18.20;13.97;;;;;;;13.04;100.00;96676.91;1044122;28;20071;-67
2021/09/01 00:15:38;;;;;;;20.47;14.20;;;;;;;13.05;100.00;96671.28;1044072;28;20036;-67
2021/09/01 00:16:25;;;;;;;18.97;14.17;;;;;;;13.06;100.00;96664.03;1035953;28;20026;-67
2021/09/01 00:16:56;;;;;;;18.50;14.30;;;;;;;13.06;100.00;96672.91;1035805;28;20021;-67
2021/09/01 00:17:26;;;;;;;18.30;14.77;;;;;;;13.05;100.00;96676.66;1035920;28;20030;-67
2021/09/01 00:17:56;;;;;;;19.07;15.27;;;;;;;13.08;100.00;96676.09;1034265;28;20018;-67
2021/09/01 00:18:27;;;;;;;18.73;14.17;;;;;;;13.08;100.00;96677.97;1038375;28;20029;-67
2021/09/01 00:19:03;;;;;;;24.43;15.40;;;;;;;13.10;100.00;96670.47;1044133;28;20040;-67
2021/09/01 00:19:33;;;;;;;25.35;15.30;;;;;;;13.10;100.00;96675.81;1044067;28;20021;-67
2021/09/01 00:20:05;;;;;;;21.87;15.00;;;;;;;13.06;100.00;96670.22;1043989;28;20029;-67
2021/09/01 00:20:35;;;;;;;25.70;15.00;;;;;;;12.99;100.00;96675.81;1044177;28;20461;-67
2021/09/01 00:21:05;;;;;;;24.27;16.10;;;;;;;13.02;100.00;96674.50;1039982;28;20044;-67
2021/09/01 00:21:37;;;;;;;20.40;15.17;;;;;;;13.04;100.00;96674.22;1040233;28;20041;-67
2021/09/01 00:22:07;;;;;;;17.70;13.82;;;;;;;13.05;100.00;96679.34;1044000;28;20021;-67
2021/09/01 00:22:37;;;;;;;18.03;13.50;;;;;;;13.05;100.00;96675.81;1044300;28;20513;-67
2021/09/01 00:23:11;;;;;;;22.03;14.10;;;;;;;13.04;100.00;96666.16;1044146;28;20021;-67
2021/09/01 00:23:41;;;;;;;17.42;13.95;;;;;;;13.02;100.00;96675.31;1044046;28;20025;-67
2021/09/01 00:24:11;;;;;;;16.97;13.37;;;;;;;13.04;100.00;96668.84;1042014;28;20025;-67
2021/09/01 00:24:42;;;;;;;17.97;13.20;;;;;;;13.02;100.00;96672.63;1040503;28;20410;-67
2021/09/01 00:25:12;;;;;;;18.50;13.83;;;;;;;13.03;100.00;96670.75;1039883;28;20646;-67
2021/09/01 00:25:43;;;;;;;20.43;14.77;;;;;;;13.05;100.00;96671.28;1039993;28;20446;-67
2021/09/01 00:26:13;;;;;;;17.67;13.57;;;;;;;13.06;100.00;96672.09;1035995;28;20467;-67
2021/09/01 00:26:43;;;;;;;18.67;14.27;;;;;;;13.04;100.00;96671.53;1035938;28;20033;-67
2021/09/01 00:27:14;;;;;;;19.93;13.87;;;;;;;13.05;100.00;96679.34;1040203;28;20409;-67
2021/09/01 00:27:44;;;;;;;19.17;14.47;;;;;;;13.04;100.00;96666.16;1041336;28;20591;-67
2021/09/01 00:28:15;;;;;;;19.90;14.10;;;;;;;13.04;100.00;96671.53;1041741;28;20378;-67
2021/09/01 00:28:46;;;;;;;19.53;14.43;;;;;;;13.03;100.00;96678.78;1041677;28;20382;-67
2021/09/01 00:29:16;;;;;;;20.43;13.70;;;;;;;13.03;100.00;96676.09;1041680;28;20021;-67
2021/09/01 00:29:46;;;;;;;18.23;14.10;;;;;;;13.04;100.00;96676.91;1041658;28;20018;-67
2021/09/01 00:30:17;;;;;;;17.90;13.07;;;;;;;13.05;100.00;96678.50;1045476;28;20009;-67
2021/09/01 00:30:47;;;;;;;20.30;13.80;;;;;;;13.05;100.00;96676.66;1037221;28;20022;-67
2021/09/01 00:31:20;;;;;;;20.87;13.40;;;;;;;13.04;100.00;96675.03;1037299;28;20021;-67
2021/09/01 00:31:51;;;;;;;16.25;12.75;;;;;;;13.02;100.00;96674.50;1033132;28;20058;-67
2021/09/01 00:32:21;;;;;;;20.73;14.73;;;;;;;13.00;100.00;96673.97;1033889;28;20030;-67
2021/09/01 00:32:52;;;;;;;17.20;13.33;;;;;;;13.02;100.00;96682.56;1041398;28;20382;-67
2021/09/01 00:33:22;;;;;;;19.60;14.53;;;;;;;13.02;100.00;96677.97;1041385;28;20018;-67
2021/09/01 00:33:52;;;;;;;21.57;14.80;;;;;;;13.01;100.00;96678.25;1041702;28;20338;-67
2021/09/01 00:34:23;;;;;;;23.93;14.53;;;;;;;13.00;100.00;96676.66;1041517;28;20473;-67
2021/09/01 00:34:53;;;;;;;17.77;13.90;;;;;;;13.01;100.00;96670.22;1041655;28;20036;-67
2021/09/01 00:35:23;;;;;;;15.97;12.93;;;;;;;13.01;100.00;96683.63;1041718;28;20029;-67
2021/09/01 00:35:54;;;;;;;20.33;14.47;;;;;;;12.98;100.00;96676.09;1037083;28;20032;-66
2021/09/01 00:36:24;;;;;;;19.93;14.03;;;;;;;12.95;100.00;96679.34;1037212;28;20018;-67
2021/09/01 00:36:55;;;;;;;16.10;12.37;;;;;;;12.97;100.00;96674.50;1033168;28;20022;-67
2021/09/01 00:37:25;;;;;;;18.57;13.00;;;;;;;12.97;100.00;96675.31;1033306;28;20026;-67
2021/09/01 00:37:56;;;;;;;16.97;12.93;;;;;;;12.98;100.00;96676.91;1037294;28;20422;-67
2021/09/01 00:38:26;;;;;;;21.33;14.40;;;;;;;12.98;100.00;96676.91;1039904;28;20764;-67
2021/09/01 00:38:56;;;;;;;22.47;14.73;;;;;;;12.93;100.00;96678.78;1041318;28;20022;-67
2021/09/01 00:39:27;;;;;;;19.57;14.33;;;;;;;12.93;100.00;96676.09;1041440;28;20076;-67
2021/09/01 00:39:57;;;;;;;20.00;14.30;;;;;;;12.89;100.00;96678.50;1045496;28;20086;-67
2021/09/01 00:40:31;;;;;;;20.70;14.63;;;;;;;12.85;100.00;96677.47;1045478;28;20029;-67
2021/09/01 00:41:01;;;;;;;19.88;14.65;;;;;;;12.88;100.00;96673.41;1045461;28;20100;-67
2021/09/01 00:41:31;;;;;;;23.43;15.67;;;;;;;12.83;100.00;96673.41;1041283;28;20084;-67
2021/09/01 00:42:11;;;;;;;20.73;14.97;;;;;;;12.81;100.00;96679.06;1041364;28;20017;-67
2021/09/01 00:42:41;;;;;;;19.95;14.82;;;;;;;12.83;100.00;96676.91;1037149;28;20037;-67
2021/09/01 00:43:11;;;;;;;20.40;14.17;;;;;;;12.83;100.00;96676.91;1034396;28;20072;-67
2021/09/01 00:43:42;;;;;;;21.53;14.53;;;;;;;12.84;100.00;96673.13;1032992;28;20538;-67
2021/09/01 00:44:23;;;;;;;21.83;15.00;;;;;;;12.83;100.00;96681.47;1033319;28;20077;-67
2021/09/01 00:44:53;;;;;;;23.33;15.65;;;;;;;12.82;100.00;96677.19;1038759;28;20022;-67
2021/09/01 00:45:23;;;;;;;22.97;15.13;;;;;;;12.79;100.00;96675.00;1042796;28;20037;-66
2021/09/01 00:45:54;;;;;;;24.73;15.47;;;;;;;12.77;100.00;96677.97;1041335;28;20024;-67
2021/09/01 00:46:24;;;;;;;22.90;16.13;;;;;;;12.73;100.00;96671.53;1041380;28;20076;-67
2021/09/01 00:46:55;;;;;;;25.60;16.53;;;;;;;12.73;100.00;96674.22;1043665;28;20024;-67
2021/09/01 00:47:25;;;;;;;24.30;16.77;;;;;;;12.72;100.00;96673.41;1041394;28;20037;-67
2021/09/01 00:47:56;;;;;;;23.87;15.80;;;;;;;12.69;100.00;96670.44;1041414;28;20021;-67
2021/09/01 00:48:26;;;;;;;20.23;15.77;;;;;;;12.69;100.00;96673.97;1041435;28;20021;-67
2021/09/01 00:48:56;;;;;;;25.83;17.13;;;;;;;12.68;100.00;96671.53;1041275;28;20033;-67
2021/09/01 00:49:27;;;;;;;22.23;16.37;;;;;;;12.67;100.00;96678.75;1041335;28;20029;-67
2021/09/01 00:49:58;;;;;;;21.93;15.60;;;;;;;12.66;100.00;96662.94;1037368;28;20375;-67
2021/09/01 00:50:28;;;;;;;23.63;16.23;;;;;;;12.70;100.00;96674.75;1033243;28;20022;-66
2021/09/01 00:50:59;;;;;;;22.67;15.93;;;;;;;12.69;100.00;96675.81;1033124;28;20023;-66
2021/09/01 00:51:29;;;;;;;22.23;15.87;;;;;;;12.67;100.00;96669.91;1033231;28;20495;-66
2021/09/01 00:52:00;;;;;;;21.33;16.07;;;;;;;12.64;100.00;96668.59;1032985;28;20065;-66
2021/09/01 00:52:30;;;;;;;26.35;17.33;;;;;;;12.62;100.00;96670.72;1041283;28;20032;-66
2021/09/01 00:53:01;;;;;;;26.83;17.27;;;;;;;12.58;100.00;96671.50;1037205;28;20041;-67
2021/09/01 00:53:34;;;;;;;26.90;17.27;;;;;;;12.58;100.00;96674.19;1036984;28;20049;-67
2021/09/01 00:54:04;;;;;;;24.45;17.33;;;;;;;12.61;100.00;96673.66;1041200;28;20033;-67
2021/09/01 00:54:35;;;;;;;21.13;16.00;;;;;;;12.64;100.00;96681.16;1033598;28;20037;-67
2021/09/01 00:55:06;;;;;;;25.03;16.50;;;;;;;12.64;100.00;96673.13;1037038;28;20033;-67
2021/09/01 00:55:36;;;;;;;21.47;15.33;;;;;;;12.66;100.00;96676.34;1033037;28;20712;-67
2021/09/01 00:56:06;;;;;;;19.43;15.37;;;;;;;12.64;100.00;96673.94;1033223;28;20025;-67
2021/09/01 00:56:37;;;;;;;22.00;15.93;;;;;;;12.65;100.00;96675.56;1033257;28;20045;-67
2021/09/01 00:57:07;;;;;;;24.43;15.93;;;;;;;12.64;100.00;96679.31;1037184;28;20383;-67
2021/09/01 00:57:39;;;;;;;25.10;17.10;;;;;;;12.63;100.00;96680.34;1037133;28;20525;-67
2021/09/01 00:58:11;;;;;;;24.42;17.15;;;;;;;12.64;100.00;96681.16;1033368;28;20061;-67
2021/09/01 00:58:41;;;;;;;29.50;17.33;;;;;;;12.63;100.00;96671.50;1033062;28;20102;-67
2021/09/01 00:59:15;;;;;;;24.40;17.10;;;;;;;12.65;100.00;96674.75;1029580;28;20023;-67
2021/09/01 00:59:46;;;;;;;23.30;16.13;;;;;;;12.68;100.00;96679.56;1029841;28;20014;-67
2021/09/01 01:00:28;;;;;;;22.53;16.13;;;;;;;12.67;100.00;96678.75;1033673;28;20026;-67
2021/09/01 01:01:31;;;;;;;25.05;17.25;;;;;;;12.59;100.00;96670.44;1039229;28;20201;-67
2021/09/01 01:02:02;;;;;;;24.73;17.50;;;;;;;12.58;100.00;96668.81;1041245;28;20437;-67
2021/09/01 01:02:32;;;;;;;24.07;17.27;;;;;;;12.57;100.00;96672.59;1037531;28;20530;-67
2021/09/01 01:03:03;;;;;;;27.50;17.77;;;;;;;12.57;100.00;96673.38;1041240;28;20051;-67
2021/09/01 01:03:33;;;;;;;22.20;17.13;;;;;;;12.58;100.00;96671.50;1041175;28;20072;-67
2021/09/01 01:04:04;;;;;;;23.17;17.40;;;;;;;12.55;100.00;96675.53;1044074;28;20005;-67
2021/09/01 01:04:34;;;;;;;23.67;16.07;;;;;;;12.56;100.00;96676.34;1049592;28;20016;-67
2021/09/01 01:05:05;;;;;;;25.03;16.90;;;;;;;12.57;100.00;96675.25;1049426;28;20560;-67
2021/09/01 01:05:35;;;;;;;29.77;17.20;;;;;;;12.56;100.00;96674.47;1045664;28;20013;-67
2021/09/01 01:06:06;;;;;;;24.23;16.53;;;;;;;12.52;100.00;96676.06;1049586;28;20019;-67
2021/09/01 01:06:36;;;;;;;23.00;17.70;;;;;;;12.53;100.00;96682.22;1049523;28;20012;-67
2021/09/01 01:07:07;;;;;;;22.03;17.13;;;;;;;12.55;100.00;96678.22;1049485;28;20012;-66
2021/09/01 01:07:38;;;;;;;24.23;16.95;;;;;;;12.57;100.00;96670.69;1045293;28;20017;-66
2021/09/01 01:08:09;;;;;;;24.20;15.83;;;;;;;12.56;100.00;96674.47;1041262;28;20025;-67
2021/09/01 01:08:40;;;;;;;23.48;16.85;;;;;;;12.54;100.00;96663.22;1041236;28;20485;-67
2021/09/01 01:09:10;;;;;;;22.93;16.90;;;;;;;12.54;100.00;96675.78;1037292;28;20069;-66
2021/09/01 01:09:41;;;;;;;24.60;16.23;;;;;;;12.56;100.00;96671.78;1037439;28;20108;-66
2021/09/01 01:10:11;;;;;;;22.17;16.33;;;;;;;12.56;100.00;96671.78;1041283;28;20064;-67
2021/09/01 01:10:42;;;;;;;25.23;16.87;;;;;;;12.54;100.00;96659.69;1041345;28;20036;-67
2021/09/01 01:11:12;;;;;;;24.63;16.93;;;;;;;12.51;100.00;96663.72;1045538;28;20021;-66
2021/09/01 01:12:06;;;;;;;25.37;17.40;;;;;;;12.49;100.00;96672.03;1049469;28;20419;-67
2021/09/01 01:12:37;;;;;;;23.48;16.83;;;;;;;12.49;100.00;96666.69;1045666;28;20025;-67
2021/09/01 01:13:08;;;;;;;22.33;16.00;;;;;;;12.54;100.00;96668.56;1049572;28;20036;-67
2021/09/01 01:13:39;;;;;;;25.20;17.03;;;;;;;12.54;100.00;96663.22;1045307;28;20040;-67
2021/09/01 01:14:09;;;;;;;23.08;16.60;;;;;;;12.55;100.00;96677.41;1045328;28;20017;-67
2021/09/01 01:14:42;;;;;;;20.43;15.40;;;;;;;12.57;100.00;96672.59;1041173;28;20025;-67
2021/09/01 01:15:13;;;;;;;20.88;15.73;;;;;;;12.56;100.00;96671.78;1041787;28;20105;-68
2021/09/01 01:15:43;;;;;;;19.43;15.67;;;;;;;12.56;100.00;96669.09;1045297;28;20021;-68
2021/09/01 01:16:15;;;;;;;19.17;14.57;;;;;;;12.58;100.00;96666.16;1045478;28;20025;-68
2021/09/01 01:16:45;;;;;;;23.48;15.05;;;;;;;12.60;100.00;96670.19;1045381;28;20027;-68
2021/09/01 01:17:18;;;;;;;18.63;14.77;;;;;;;12.64;100.00;96673.13;1045673;28;20370;-67
2021/09/01 01:17:48;;;;;;;21.25;15.93;;;;;;;12.62;100.00;96672.59;1045394;28;20020;-66
2021/09/01 01:18:19;;;;;;;19.57;15.20;;;;;;;12.63;100.00;96671.50;1045416;28;20032;-66
2021/09/01 01:18:49;;;;;;;23.23;16.40;;;;;;;12.60;100.00;96672.06;1045361;28;20373;-66
2021/09/01 01:19:20;;;;;;;24.27;16.40;;;;;;;12.59;100.00;96675.78;1045456;28;20021;-67
2021/09/01 01:19:51;;;;;;;19.53;14.60;;;;;;;12.62;100.00;96670.72;1044959;28;20036;-67
2021/09/01 01:20:22;;;;;;;25.05;16.50;;;;;;;12.57;100.00;96672.59;1045406;28;20504;-66
2021/09/01 01:20:53;;;;;;;25.93;16.30;;;;;;;12.55;100.00;96672.84;1045355;28;20032;-66
2021/09/01 01:21:25;;;;;;;26.20;16.27;;;;;;;12.57;100.00;96670.69;1045407;28;20051;-66
2021/09/01 01:21:56;;;;;;;19.80;15.18;;;;;;;12.59;100.00;96665.06;1045712;28;20075;-67
2021/09/01 01:22:27;;;;;;;18.73;14.75;;;;;;;12.62;100.00;96673.38;1045321;28;20103;-66
2021/09/01 01:22:57;;;;;;;21.27;15.10;;;;;;;12.63;100.00;96672.31;1045187;28;20367;-66
2021/09/01 01:23:28;;;;;;;19.53;15.03;;;;;;;12.62;100.00;96673.38;1041291;28;20025;-66
2021/09/01 01:23:58;;;;;;;19.17;14.40;;;;;;;12.62;100.00;96676.06;1041276;28;20058;-66
2021/09/01 01:24:49;;;;;;;21.50;15.07;;;;;;;12.65;100.00;96672.06;1045319;28;20017;-66
2021/09/01 01:25:35;;;;;;;;;;;;;;;12.59;100.00;96679.31;1046073;28;20091;-65
2021/09/01 01:26:06;;;;;;;20.60;15.30;;;;;;;12.58;100.00;96669.63;1045616;28;19920;-66
2021/09/01 01:26:36;;;;;;;26.25;15.05;;;;;;;12.59;100.00;96673.09;1045689;28;20044;-67
2021/09/01 01:27:08;;;;;;;22.80;16.10;;;;;;;12.57;100.00;96670.69;1045314;28;20021;-67
2021/09/01 01:27:42;;;;;;;26.60;17.42;;;;;;;12.57;100.00;96673.38;1032834;28;20606;-67
2021/09/01 01:28:13;;;;;;;27.90;17.55;;;;;;;12.56;100.00;96666.41;1028936;28;20058;-67
2021/09/01 01:28:58;;;;;;;21.03;15.83;;;;;;;12.55;100.00;96664.81;1029471;28;20081;-67
2021/09/01 01:29:28;;;;;;;22.33;17.30;;;;;;;12.54;100.00;96668.56;1037229;28;20483;-67
2021/09/01 01:30:16;;;;;;;25.07;17.37;;;;;;;12.52;100.00;96665.34;1041402;28;20021;-67
2021/09/01 01:30:46;;;;;;;25.77;17.45;;;;;;;12.51;100.00;96673.66;1041230;28;20109;-68
2021/09/01 01:31:17;;;;;;;26.23;18.13;;;;;;;12.51;100.00;96669.09;1041240;28;20039;-67
2021/09/01 01:31:47;;;;;;;26.03;17.77;;;;;;;12.49;100.00;96674.72;1041231;28;20028;-68
2021/09/01 01:32:18;;;;;;;22.50;17.23;;;;;;;12.49;100.00;96669.38;1041236;28;20025;-67
2021/09/01 01:32:49;;;;;;;27.43;17.90;;;;;;;12.47;100.00;96668.81;1041526;28;20065;-67
2021/09/01 01:33:20;;;;;;;24.65;17.67;;;;;;;12.44;100.00;96674.72;1041560;28;20036;-67
2021/09/01 01:33:50;;;;;;;25.50;17.57;;;;;;;12.42;100.00;96674.16;1045320;28;20021;-67
2021/09/01 01:34:21;;;;;;;25.40;16.87;;;;;;;12.38;100.00;96673.06;1041147;28;20026;-67
2021/09/01 01:34:52;;;;;;;23.20;17.20;;;;;;;12.35;100.00;96667.44;1041202;28;20099;-68
2021/09/01 01:35:30;;;;;;;24.40;17.50;;;;;;;12.35;100.00;96670.94;1037150;28;20464;-68
2021/09/01 01:36:00;;;;;;;24.77;17.63;;;;;;;12.34;100.00;96672.00;1034181;28;20100;-68
2021/09/01 01:36:31;;;;;;;25.33;18.00;;;;;;;12.31;100.00;96664.47;1037153;28;20536;-67
2021/09/01 01:37:09;;;;;;;29.07;18.63;;;;;;;12.28;100.00;96672.25;1038370;28;20025;-67
2021/09/01 01:37:40;;;;;;;28.75;18.42;;;;;;;12.25;100.00;96667.44;1041345;28;20116;-67
2021/09/01 01:38:13;;;;;;;24.77;18.02;;;;;;;12.22;100.00;96676.78;1041482;28;20060;-67
2021/09/01 01:38:44;;;;;;;33.00;19.13;;;;;;;12.20;100.00;96668.22;1041431;28;20021;-67
2021/09/01 01:39:14;;;;;;;30.03;19.17;;;;;;;12.17;100.00;96671.41;1040137;28;20054;-67
2021/09/01 01:39:45;;;;;;;28.57;18.57;;;;;;;12.13;100.00;96673.00;1040614;28;20037;-67
2021/09/01 01:40:15;;;;;;;29.83;19.67;;;;;;;12.11;100.00;96675.13;1040523;28;20030;-67
2021/09/01 01:40:46;;;;;;;31.37;19.60;;;;;;;12.09;100.00;96677.28;1040588;28;20040;-67
2021/09/01 01:41:16;;;;;;;30.23;19.53;;;;;;;12.05;100.00;96684.22;1036565;28;20484;-67
2021/09/01 01:41:47;;;;;;;33.07;20.13;;;;;;;12.03;100.00;96681.00;1040609;28;20037;-67
2021/09/01 01:42:17;;;;;;;28.73;20.03;;;;;;;12.01;100.00;96675.09;1040580;28;20076;-67
2021/09/01 01:42:49;;;;;;;26.20;18.90;;;;;;;12.05;100.00;96679.69;1040570;28;20150;-68
2021/09/01 01:43:19;;;;;;;26.65;18.80;;;;;;;12.06;100.00;96677.81;1044571;28;20183;-67
2021/09/01 01:43:50;;;;;;;26.53;18.97;;;;;;;12.03;100.00;96678.31;1045059;28;20532;-67
2021/09/01 01:44:20;;;;;;;30.67;19.53;;;;;;;12.02;100.00;96668.66;1044996;28;20017;-67
2021/09/01 01:44:51;;;;;;;26.93;19.17;;;;;;;12.02;100.00;96674.03;1045062;28;20382;-67
2021/09/01 01:45:22;;;;;;;27.63;18.60;;;;;;;12.03;100.00;96678.31;1044954;28;20033;-67
2021/09/01 01:45:52;;;;;;;33.15;19.17;;;;;;;12.04;100.00;96677.28;1040549;28;20024;-67
2021/09/01 01:46:23;;;;;;;27.27;18.57;;;;;;;12.03;100.00;96675.63;1040515;28;20029;-67
2021/09/01 01:46:53;;;;;;;26.73;18.33;;;;;;;12.04;100.00;96682.63;1040551;28;20079;-67
2021/09/01 01:47:23;;;;;;;24.73;16.70;;;;;;;12.05;100.00;96681.56;1036515;28;20018;-67
2021/09/01 01:47:54;;;;;;;22.73;16.80;;;;;;;12.08;100.00;96675.66;1040432;28;20479;-68
2021/09/01 01:48:24;;;;;;;23.90;17.67;;;;;;;12.09;100.00;96674.59;1040595;28;20390;-67
2021/09/01 01:48:55;;;;;;;21.27;15.70;;;;;;;12.09;100.00;96680.78;1040621;28;20368;-67
2021/09/01 01:49:25;;;;;;;19.80;15.27;;;;;;;12.11;100.00;96681.31;1040387;28;20026;-68
2021/09/01 01:49:56;;;;;;;19.57;14.10;;;;;;;12.13;100.00;96684.53;1040510;28;20024;-67
2021/09/01 01:50:26;;;;;;;21.77;16.23;;;;;;;12.14;100.00;96677.31;1040586;28;20502;-67
2021/09/01 01:50:56;;;;;;;21.73;14.57;;;;;;;12.11;100.00;96675.13;1040633;28;20585;-68
2021/09/01 01:51:27;;;;;;;19.90;14.50;;;;;;;12.09;100.00;96672.72;1044621;28;20032;-67
2021/09/01 01:51:57;;;;;;;17.73;14.03;;;;;;;12.11;100.00;96667.09;1044957;28;20040;-68
2021/09/01 01:52:28;;;;;;;21.77;15.23;;;;;;;12.12;100.00;96674.06;1044628;28;20382;-67
2021/09/01 01:52:58;;;;;;;20.70;15.63;;;;;;;12.12;100.00;96672.19;1044687;28;20024;-67
2021/09/01 01:53:29;;;;;;;19.00;14.90;;;;;;;12.12;100.00;96672.19;1044629;28;20425;-68
2021/09/01 01:53:59;;;;;;;21.40;15.17;;;;;;;12.11;100.00;96675.94;1044663;28;20409;-67
2021/09/01 01:54:30;;;;;;;20.20;15.77;;;;;;;12.11;100.00;96675.94;1044967;28;20021;-67
2021/09/01 01:55:00;;;;;;;21.10;15.67;;;;;;;12.08;100.00;96671.13;1044590;28;20029;-67
2021/09/01 01:55:31;;;;;;;23.33;15.87;;;;;;;12.10;100.00;96666.31;1044621;28;20114;-67
2021/09/01 01:56:01;;;;;;;20.70;15.13;;;;;;;12.11;100.00;96680.50;1040385;28;20052;-68
2021/09/01 01:56:32;;;;;;;18.70;14.83;;;;;;;12.14;100.00;96677.31;1040525;28;20487;-67
2021/09/01 01:57:02;;;;;;;20.60;14.70;;;;;;;12.13;100.00;96673.81;1044615;28;20023;-68
2021/09/01 01:57:33;;;;;;;19.90;14.87;;;;;;;12.13;100.00;96671.16;1044630;28;20036;-67
2021/09/01 01:58:03;;;;;;;17.30;14.00;;;;;;;12.17;100.00;96671.41;1044660;28;20009;-67
2021/09/01 01:58:33;;;;;;;23.50;15.60;;;;;;;12.16;100.00;96677.84;1044717;28;20458;-68
2021/09/01 01:59:04;;;;;;;18.90;14.73;;;;;;;12.15;100.00;96678.91;1044958;28;20367;-67
2021/09/01 01:59:34;;;;;;;19.87;15.10;;;;;;;12.13;100.00;96673.00;1044897;28;20028;-67
2021/09/01 02:00:06;;;;;;;20.53;15.20;;;;;;;12.13;100.00;96678.34;1044909;28;20420;-67
2021/09/01 02:00:36;;;;;;;20.88;15.00;;;;;;;12.11;100.00;96675.94;1044750;28;20048;-67
2021/09/01 02:01:06;;;;;;;18.23;13.77;;;;;;;12.13;100.00;96676.50;1044968;28;20014;-67
2021/09/01 02:01:37;;;;;;;19.53;14.43;;;;;;;12.14;100.00;96677.31;1044429;28;20040;-67
2021/09/01 02:02:07;;;;;;;23.50;15.77;;;;;;;12.12;100.00;96674.88;1044621;28;20043;-67
2021/09/01 02:02:38;;;;;;;20.50;14.93;;;;;;;12.11;100.00;96677.81;1044621;28;20398;-67
2021/09/01 02:03:08;;;;;;;19.93;14.70;;;;;;;12.14;100.00;96677.31;1044615;28;20020;-67
2021/09/01 02:03:39;;;;;;;19.73;14.27;;;;;;;12.09;100.00;96669.25;1044604;28;20028;-67
2021/09/01 02:04:09;;;;;;;24.53;16.33;;;;;;;12.07;100.00;96680.22;1044631;28;20422;-67
2021/09/01 02:04:39;;;;;;;21.00;15.13;;;;;;;12.10;100.00;96678.91;1040492;28;20505;-67
2021/09/01 02:05:10;;;;;;;22.27;15.13;;;;;;;12.06;100.00;96675.13;1040569;28;20024;-67
2021/09/01 02:05:40;;;;;;;21.43;15.23;;;;;;;12.08;100.00;96676.50;1044579;28;20025;-66
2021/09/01 02:06:11;;;;;;;18.83;14.90;;;;;;;12.08;100.00;96675.66;1044623;28;20020;-66
2021/09/01 02:06:41;;;;;;;20.40;14.47;;;;;;;12.09;100.00;96669.25;1044765;28;20013;-66
2021/09/01 02:07:12;;;;;;;17.97;14.63;;;;;;;12.10;100.00;96670.84;1044531;28;20013;-67
2021/09/01 02:07:42;;;;;;;23.37;15.37;;;;;;;12.09;100.00;96677.28;1044630;28;20021;-66
2021/09/01 02:08:13;;;;;;;18.77;14.37;;;;;;;12.08;100.00;96671.13;1044595;28;20047;-66
2021/09/01 02:08:43;;;;;;;20.50;14.53;;;;;;;12.08;100.00;96672.97;1042577;28;20043;-66
2021/09/01 02:09:13;;;;;;;19.70;14.63;;;;;;;12.07;100.00;96676.72;1040761;28;20025;-66
2021/09/01 02:09:44;;;;;;;24.27;15.83;;;;;;;12.06;100.00;96677.81;1040758;28;20028;-67
2021/09/01 02:10:14;;;;;;;25.43;15.20;;;;;;;12.05;100.00;96682.34;1040294;28;20025;-66
2021/09/01 02:10:45;;;;;;;18.47;14.67;;;;;;;12.06;100.00;96672.44;1036382;28;20022;-67
2021/09/01 02:11:15;;;;;;;20.17;15.43;;;;;;;12.08;100.00;96671.13;1032262;28;20018;-67
2021/09/01 02:11:46;;;;;;;21.73;15.40;;;;;;;12.07;100.00;96682.88;1032335;28;20022;-67
2021/09/01 02:12:16;;;;;;;19.90;14.73;;;;;;;12.06;100.00;96677.81;1036423;28;20060;-67
2021/09/01 02:12:47;;;;;;;20.73;14.97;;;;;;;12.05;100.00;96677.00;1040437;28;20026;-67
2021/09/01 02:13:17;;;;;;;21.33;15.17;;;;;;;12.05;100.00;96676.19;1040463;28;20101;-67
2021/09/01 02:13:47;;;;;;;19.47;15.00;;;;;;;12.05;100.00;96674.31;1040363;28;20025;-67
2021/09/01 02:14:18;;;;;;;22.13;15.73;;;;;;;12.04;100.00;96672.72;1036262;28;20097;-66
2021/09/01 02:14:48;;;;;;;23.83;16.13;;;;;;;11.99;100.00;96678.06;1036437;28;20021;-67
2021/09/01 02:15:19;;;;;;;21.07;15.87;;;;;;;12.00;100.00;96676.97;1040473;28;20014;-67
2021/09/01 02:15:49;;;;;;;21.30;15.57;;;;;;;12.01;100.00;96680.47;1036254;28;20025;-66
2021/09/01 02:16:19;;;;;;;24.53;16.27;;;;;;;12.00;100.00;96676.97;1040434;28;20028;-67
2021/09/01 02:16:50;;;;;;;21.53;16.30;;;;;;;12.01;100.00;96678.59;1036341;28;20018;-66
2021/09/01 02:17:20;;;;;;;20.70;15.60;;;;;;;12.01;100.00;96677.78;1036400;28;20029;-66
2021/09/01 02:17:51;;;;;;;23.27;15.77;;;;;;;11.99;100.00;96682.59;1040491;28;20025;-66
2021/09/01 02:18:21;;;;;;;23.17;16.03;;;;;;;11.95;100.00;96672.41;1036415;28;20033;-67
2021/09/01 02:18:52;;;;;;;23.27;15.97;;;;;;;11.94;100.00;96670.81;1036278;28;20024;-67
2021/09/01 02:19:22;;;;;;;21.20;15.20;;;;;;;11.92;100.00;96670.22;1036373;28;20096;-67
2021/09/01 02:19:52;;;;;;;21.77;16.23;;;;;;;11.92;100.00;96672.91;1036246;28;20108;-67
2021/09/01 02:20:23;;;;;;;20.33;15.33;;;;;;;11.89;100.00;96678.00;1036368;28;20042;-67
2021/09/01 02:20:53;;;;;;;21.47;15.73;;;;;;;11.90;100.00;96672.38;1040405;28;20033;-67
2021/09/01 02:21:24;;;;;;;20.40;15.17;;;;;;;11.90;100.00;96675.06;1040518;28;20018;-66
2021/09/01 02:21:54;;;;;;;24.50;16.43;;;;;;;11.88;100.00;96674.53;1036409;28;20018;-66
2021/09/01 02:22:24;;;;;;;23.57;16.00;;;;;;;11.85;100.00;96679.59;1040379;28;20018;-66